Time;durP1;ratioP1;P1;durP2;ratioP2;P2;SDS_P1;SDS_P2;PMS_P1;PMS_P2;Temp;Humidity;BMP_temperature;BMP_pressure;BME280_temperature;BME280_humidity;BME280_pressure;Samples;Min_cycle;Max_cycle;Signal;HPM_P1;HPM_P2
2022/11/15 00:00:01;;;;;;;3.13;1.98;;;;;;;6.28;90.26;100816.31;10515069;28;20458;-79
2022/11/15 00:05:21;;;;;;;3.13;1.63;;;;;;;6.28;90.33;100820.63;10527650;28;20044;-79
2022/11/15 00:10:42;;;;;;;1.80;1.48;;;;;;;6.18;90.42;100820.31;10527292;28;20041;-78
2022/11/15 00:16:02;;;;;;;;;;;;;;;6.08;90.64;100815.63;10527815;28;20115;-79
2022/11/15 00:21:22;;;;;;;2.30;1.53;;;;;;;5.99;90.60;100821.34;10528048;28;19932;-79
2022/11/15 00:26:42;;;;;;;3.75;1.52;;;;;;;5.92;90.74;100818.44;10478781;28;20040;-79
2022/11/15 00:32:03;;;;;;;1.98;1.23;;;;;;;5.90;91.08;100817.50;10485670;28;20045;-79
2022/11/15 00:37:23;;;;;;;4.45;1.65;;;;;;;5.82;91.25;100822.41;10486173;28;20099;-79
2022/11/15 00:42:43;;;;;;;3.20;2.35;;;;;;;5.75;91.35;100818.72;10502196;28;20425;-79
2022/11/15 00:48:04;;;;;;;2.65;1.95;;;;;;;5.66;91.47;100826.19;10526345;28;20048;-79
2022/11/15 00:53:24;;;;;;;2.83;2.00;;;;;;;5.62;91.63;100817.34;10511010;28;20607;-78
2022/11/15 00:58:44;;;;;;;2.63;1.80;;;;;;;5.51;91.68;100822.97;10477872;28;20040;-78
2022/11/15 01:04:04;;;;;;;2.78;1.45;;;;;;;5.31;91.82;100815.28;10512958;28;20036;-78
2022/11/15 01:09:24;;;;;;;1.30;0.97;;;;;;;5.18;91.81;100823.44;10519853;28;20506;-78
2022/11/15 01:14:44;;;;;;;1.40;0.90;;;;;;;5.10;92.18;100816.25;10485042;28;20466;-79
2022/11/15 01:20:05;;;;;;;2.25;1.27;;;;;;;4.98;92.19;100810.53;10496127;28;20044;-79
2022/11/15 01:25:25;;;;;;;1.92;1.50;;;;;;;4.90;92.37;100807.66;10510222;28;20048;-78
2022/11/15 01:30:45;;;;;;;1.30;0.98;;;;;;;4.85;92.58;100797.91;10476523;28;20087;-79
2022/11/15 01:36:08;;;;;;;2.85;1.45;;;;;;;4.71;92.65;100777.47;10487793;28;20051;-79
2022/11/15 01:41:31;;;;;;;1.88;1.45;;;;;;;4.63;92.85;100780.59;10524218;28;20036;-79
2022/11/15 01:46:51;;;;;;;3.17;1.77;;;;;;;4.62;92.95;100774.50;10525287;28;20435;-79
2022/11/15 01:52:17;;;;;;;2.20;1.60;;;;;;;4.65;92.96;100759.06;10525038;28;20430;-79
2022/11/15 01:57:41;;;;;;;3.28;1.73;;;;;;;4.70;93.12;100760.16;10524998;28;20524;-79
2022/11/15 02:03:02;;;;;;;3.15;2.15;;;;;;;4.78;93.37;100752.69;10478240;28;20048;-80
2022/11/15 02:08:22;;;;;;;5.28;2.58;;;;;;;4.87;93.47;100745.25;10468586;28;20060;-79
2022/11/15 02:13:43;;;;;;;1.92;1.02;;;;;;;4.96;93.61;100736.94;10491780;28;20036;-79
2022/11/15 02:19:22;;;;;;;1.45;1.23;;;;;;;5.08;93.70;100731.34;10477866;28;20755;-79
2022/11/15 02:25:22;;;;;;;1.70;1.25;;;;;;;5.17;93.91;100736.03;10484161;28;20045;-79
2022/11/15 02:31:00;;;;;;;3.78;1.92;;;;;;;5.24;93.99;100738.00;10490078;28;20060;-79
2022/11/15 02:36:40;;;;;;;2.78;1.95;;;;;;;5.36;94.00;100729.78;10490901;28;20735;-79
2022/11/15 02:43:56;;;;;;;0.65;0.60;;;;;;;5.44;94.02;100726.66;10508667;28;20135;-79
2022/11/15 02:47:50;;;;;;;1.45;1.00;;;;;;;5.56;94.08;100720.16;10522994;28;20049;-79
2022/11/15 02:53:10;;;;;;;1.83;1.35;;;;;;;5.63;94.24;100727.31;10489921;28;20127;-79
2022/11/15 02:59:00;;;;;;;3.28;1.88;;;;;;;5.79;94.01;100724.44;10490076;28;20045;-79
2022/11/15 03:04:54;;;;;;;3.30;1.95;;;;;;;6.00;94.19;100731.25;10489682;28;20514;-79
2022/11/15 03:10:35;;;;;;;1.38;0.80;;;;;;;6.12;94.16;100726.47;10508811;28;20059;-79
2022/11/15 03:16:13;;;;;;;3.13;1.85;;;;;;;6.21;93.77;100725.03;10530818;28;20046;-79
2022/11/15 03:21:34;;;;;;;6.43;1.95;;;;;;;6.30;94.11;100718.41;10530374;28;20572;-79
2022/11/15 03:26:57;;;;;;;3.65;2.17;;;;;;;6.44;93.63;100711.09;10519906;28;20044;-79
2022/11/15 03:32:23;;;;;;;4.10;2.00;;;;;;;6.56;93.64;100710.59;10520031;28;20048;-79
2022/11/15 03:38:06;;;;;;;2.40;1.48;;;;;;;6.70;93.48;100700.63;10529831;28;20047;-78
2022/11/15 03:43:54;;;;;;;3.65;1.80;;;;;;;6.76;93.41;100700.81;10520334;28;20479;-79
2022/11/15 03:49:25;;;;;;;2.30;1.83;;;;;;;6.87;93.07;100691.59;10528258;28;20126;-80
2022/11/15 03:54:56;;;;;;;2.92;2.03;;;;;;;6.94;93.08;100695.28;10520799;28;20044;-78
2022/11/15 04:00:16;;;;;;;3.17;2.28;;;;;;;6.97;92.83;100694.50;10524766;28;20040;-79
2022/11/15 04:05:36;;;;;;;5.00;1.23;;;;;;;7.04;92.70;100701.63;10487348;28;20056;-79
2022/11/15 04:10:56;;;;;;;2.90;1.67;;;;;;;7.15;92.67;100695.03;10487498;28;20044;-79
2022/11/15 04:16:18;;;;;;;3.00;1.63;;;;;;;7.23;92.63;100697.88;10487201;28;20049;-79
2022/11/15 04:27:17;;;;;;;2.85;2.28;;;;;;;7.39;92.49;100684.44;10486581;28;20041;-79
2022/11/15 04:32:37;;;;;;;3.10;1.58;;;;;;;7.49;92.20;100696.03;10492251;28;20040;-78
2022/11/15 04:37:58;;;;;;;4.88;2.58;;;;;;;7.55;91.95;100706.63;10527347;28;20819;-79
2022/11/15 04:43:18;;;;;;;3.53;2.10;;;;;;;7.64;91.79;100694.66;10532154;28;20447;-80
2022/11/15 04:48:38;;;;;;;1.98;1.63;;;;;;;7.71;91.72;100707.03;10504997;28;20045;-79
2022/11/15 04:53:59;;;;;;;4.70;2.00;;;;;;;7.77;91.43;100702.84;10520607;28;20040;-79
2022/11/15 04:59:18;;;;;;;1.98;1.33;;;;;;;7.88;91.53;100700.56;10524200;28;20040;-79
2022/11/15 05:04:39;;;;;;;1.38;0.82;;;;;;;7.96;91.36;100696.41;10508496;28;20036;-80
2022/11/15 05:09:59;;;;;;;2.95;1.90;;;;;;;8.06;91.07;100688.84;10475283;28;20052;-79
2022/11/15 05:15:19;;;;;;;5.00;2.60;;;;;;;8.08;91.32;100687.16;10524142;28;20048;-78
2022/11/15 05:20:39;;;;;;;3.03;1.85;;;;;;;8.14;91.13;100687.31;10524304;28;20048;-79
2022/11/15 05:26:00;;;;;;;1.33;1.17;;;;;;;8.25;91.11;100684.97;10524658;28;20044;-79
2022/11/15 05:31:27;;;;;;;2.45;1.40;;;;;;;8.29;91.13;100676.38;10523801;28;20509;-79
2022/11/15 05:36:48;;;;;;;1.23;1.08;;;;;;;8.38;91.05;100671.38;10524539;28;20048;-79
2022/11/15 05:42:14;;;;;;;2.10;1.25;;;;;;;8.44;91.13;100673.31;10524216;28;20052;-79
2022/11/15 05:47:36;;;;;;;2.85;1.35;;;;;;;8.47;91.19;100662.94;10523681;28;20043;-79
2022/11/15 05:52:57;;;;;;;2.10;1.30;;;;;;;8.45;91.08;100672.44;10516121;28;20115;-81
2022/11/15 05:58:23;;;;;;;1.75;1.13;;;;;;;8.56;91.19;100681.41;10523158;28;20063;-80
2022/11/15 06:03:43;;;;;;;4.30;1.55;;;;;;;8.59;91.09;100686.72;10530930;28;20112;-79
2022/11/15 06:09:04;;;;;;;3.38;2.03;;;;;;;8.71;91.34;100688.72;10539174;28;20051;-79
2022/11/15 06:14:24;;;;;;;1.83;1.42;;;;;;;8.81;91.27;100687.19;10537786;28;20741;-80
2022/11/15 06:19:44;;;;;;;3.83;1.67;;;;;;;8.83;91.10;100689.00;10533869;28;20385;-80
2022/11/15 06:25:04;;;;;;;2.95;1.95;;;;;;;8.91;90.88;100696.13;10531510;28;20415;-79
2022/11/15 06:30:25;;;;;;;6.22;2.65;;;;;;;8.96;91.00;100698.00;10532217;28;20044;-79
2022/11/15 06:35:45;;;;;;;2.80;1.58;;;;;;;9.08;91.01;100688.66;10530539;28;20087;-79
2022/11/15 06:41:08;;;;;;;1.73;1.30;;;;;;;9.05;90.74;100691.19;10530273;28;20052;-79
2022/11/15 06:46:28;;;;;;;1.77;0.88;;;;;;;9.10;90.88;100697.44;10519273;28;20425;-79
2022/11/15 06:51:48;;;;;;;4.32;1.85;;;;;;;9.12;90.84;100703.56;10477132;28;20049;-81
2022/11/15 06:57:08;;;;;;;;;;;;;;;9.21;90.84;100698.53;10467126;28;20497;-79
2022/11/15 07:02:29;;;;;;;1.30;1.20;;;;;;;9.24;90.71;100710.78;10485282;28;20420;-79
2022/11/15 07:07:53;;;;;;;3.90;2.13;;;;;;;9.28;90.85;100703.03;10487764;28;20045;-80
2022/11/15 07:13:13;;;;;;;4.35;2.75;;;;;;;9.34;90.85;100712.75;10488391;28;20060;-80
2022/11/15 07:18:35;;;;;;;1.17;0.93;;;;;;;9.43;90.68;100709.41;10488724;28;20045;-79
2022/11/15 07:23:55;;;;;;;1.83;0.98;;;;;;;9.48;90.68;100707.78;10490979;28;20052;-80
2022/11/15 07:29:15;;;;;;;2.58;1.70;;;;;;;9.54;90.64;100715.75;10476511;28;20048;-80
2022/11/15 07:34:35;;;;;;;5.30;1.73;;;;;;;9.62;90.80;100722.00;10498840;28;20574;-80
2022/11/15 07:39:55;;;;;;;3.00;1.42;;;;;;;9.62;90.60;100714.16;10508102;28;20044;-80
2022/11/15 07:45:15;;;;;;;3.42;1.88;;;;;;;9.65;90.62;100721.19;10484691;28;20074;-80
2022/11/15 07:50:36;;;;;;;;;;;;;;;9.68;90.71;100721.25;10488780;28;20071;-79
2022/11/15 07:55:56;;;;;;;2.65;1.35;;;;;;;9.70;90.77;100720.44;10514167;28;19924;-80
2022/11/15 08:01:16;;;;;;;3.42;1.80;;;;;;;9.83;90.61;100716.34;10475296;28;20041;-83
2022/11/15 08:06:37;;;;;;;3.47;1.48;;;;;;;9.88;90.70;100703.34;10465588;28;20049;-78
2022/11/15 08:11:57;;;;;;;2.80;1.73;;;;;;;10.01;90.64;100700.09;10461360;28;20131;-79
2022/11/15 08:17:17;;;;;;;3.28;1.55;;;;;;;10.09;90.54;100703.72;10485317;28;20075;-79
2022/11/15 08:22:37;;;;;;;1.77;1.05;;;;;;;10.20;90.22;100713.50;10505114;28;20048;-81
2022/11/15 08:28:00;;;;;;;1.35;1.00;;;;;;;10.26;90.12;100705.75;10448018;28;20045;-81
2022/11/15 08:33:20;;;;;;;4.03;1.90;;;;;;;10.26;89.82;100706.63;10450385;28;20449;-79
2022/11/15 08:38:40;;;;;;;2.53;1.42;;;;;;;10.23;89.92;100718.78;10488243;28;20575;-80
2022/11/15 08:44:00;;;;;;;3.35;1.73;;;;;;;10.16;89.86;100714.28;10481041;28;20037;-80
2022/11/15 08:49:20;;;;;;;3.50;2.05;;;;;;;10.15;89.91;100717.75;10465103;28;20041;-80
2022/11/15 08:54:40;;;;;;;;;;;;;;;10.08;90.14;100722.88;10472395;28;20518;-80
2022/11/15 09:00:00;;;;;;;2.25;1.33;;;;;;;10.13;90.29;100714.22;10469163;28;20381;-80
2022/11/15 09:05:20;;;;;;;;;;;;;;;10.17;90.41;100718.69;10484953;28;20127;-80
2022/11/15 09:10:40;;;;;;;2.08;1.33;;;;;;;10.27;90.38;100710.13;10488085;28;19933;-80
2022/11/15 09:16:01;;;;;;;3.90;1.75;;;;;;;10.53;90.59;100704.47;10470576;28;20048;-79
2022/11/15 09:21:21;;;;;;;7.55;1.95;;;;;;;10.84;90.51;100699.69;10484618;28;20583;-79
2022/11/15 09:26:41;;;;;;;2.92;1.70;;;;;;;11.03;90.01;100698.22;10485567;28;20107;-79
2022/11/15 09:32:01;;;;;;;2.80;1.30;;;;;;;11.14;89.67;100710.63;10483869;28;20068;-79
2022/11/15 09:37:21;;;;;;;;;;;;;;;11.16;89.33;100704.53;10473236;28;20045;-79
2022/11/15 09:43:10;;;;;;;2.72;1.70;;;;;;;11.19;88.96;100702.81;10493367;28;20382;-80
2022/11/15 09:48:55;;;;;;;3.38;1.73;;;;;;;11.22;88.92;100699.38;10483248;28;20127;-79
2022/11/15 09:54:30;;;;;;;2.78;1.45;;;;;;;11.23;88.55;100702.00;10489554;28;20037;-79
2022/11/15 10:00:23;;;;;;;3.97;1.70;;;;;;;11.43;88.48;100690.88;10498589;28;20040;-79
2022/11/15 10:05:50;;;;;;;4.45;2.33;;;;;;;11.57;88.28;100689.28;10493238;28;20137;-79
2022/11/15 10:11:02;;;;;;;3.28;1.73;;;;;;;11.57;88.28;100689.28;10492267;28;20465;-79
2022/11/15 10:17:01;;;;;;;6.60;2.05;;;;;;;11.96;87.42;100687.97;10478550;28;20048;-79
2022/11/15 10:22:23;;;;;;;3.35;1.85;;;;;;;12.09;86.90;100678.50;10481834;28;20505;-79
2022/11/15 10:27:25;;;;;;;5.03;1.80;;;;;;;12.12;86.47;100675.91;10478943;28;20547;-79
2022/11/15 10:32:26;;;;;;;3.25;1.45;;;;;;;12.11;86.18;100671.50;10485369;28;20590;-79
2022/11/15 10:37:29;;;;;;;2.03;1.38;;;;;;;12.12;86.04;100667.16;10486065;28;20037;-80
2022/11/15 10:42:31;;;;;;;3.28;1.77;;;;;;;12.13;85.97;100654.03;10499297;28;20841;-79
2022/11/15 10:47:32;;;;;;;4.07;1.70;;;;;;;12.14;85.66;100650.53;10509151;28;20166;-79
2022/11/15 10:52:46;;;;;;;4.60;1.45;;;;;;;12.19;85.65;100635.72;10481057;28;20071;-78
2022/11/15 10:58:04;;;;;;;4.03;1.92;;;;;;;12.31;85.68;100627.06;10491935;28;20506;-79
2022/11/15 11:03:29;;;;;;;4.00;2.00;;;;;;;12.46;85.55;100625.38;10495745;28;20059;-80
2022/11/15 11:08:31;;;;;;;3.55;1.67;;;;;;;12.60;85.24;100615.88;10492495;28;20040;-81
2022/11/15 11:13:37;;;;;;;7.20;1.50;;;;;;;12.79;84.91;100600.19;10522728;28;20044;-81
2022/11/15 11:18:57;;;;;;;3.72;1.75;;;;;;;12.86;84.47;100608.09;10503626;28;20560;-82
2022/11/15 11:24:44;;;;;;;3.72;1.60;;;;;;;12.87;84.12;100607.25;10483444;28;20037;-78
2022/11/15 11:30:17;;;;;;;4.57;1.67;;;;;;;12.73;83.92;100601.06;10502979;28;20051;-80
2022/11/15 11:35:27;;;;;;;2.28;0.93;;;;;;;12.80;83.91;100605.44;10512397;28;20105;-80
2022/11/15 11:40:30;;;;;;;2.40;1.33;;;;;;;13.13;83.58;100602.97;10529416;28;20594;-80
2022/11/15 11:45:42;;;;;;;1.83;1.20;;;;;;;13.39;82.78;100595.19;10529396;28;20558;-79
2022/11/15 11:50:48;;;;;;;2.42;1.25;;;;;;;13.53;82.27;100597.88;10529102;28;20036;-79
2022/11/15 11:55:54;;;;;;;1.55;1.05;;;;;;;13.56;81.79;100593.47;10511698;28;20048;-80
2022/11/15 12:01:04;;;;;;;2.55;1.30;;;;;;;13.52;81.41;100593.47;10527750;28;20047;-79
2022/11/15 12:06:32;;;;;;;3.25;1.67;;;;;;;13.48;81.00;100587.34;10509840;28;20503;-80
2022/11/15 12:11:57;;;;;;;3.10;1.65;;;;;;;13.39;80.67;100575.03;10501719;28;20053;-78
2022/11/15 12:16:59;;;;;;;3.20;1.25;;;;;;;13.47;80.29;100561.91;10471074;28;20044;-78
2022/11/15 12:22:22;;;;;;;1.70;1.00;;;;;;;13.53;80.07;100561.03;10517853;28;20447;-80
2022/11/15 12:27:40;;;;;;;2.15;1.20;;;;;;;13.66;79.75;100562.81;10528380;28;20089;-77
2022/11/15 12:32:59;;;;;;;2.25;1.30;;;;;;;13.82;78.80;100547.88;10527892;28;20047;-80
2022/11/15 12:38:01;;;;;;;2.22;1.05;;;;;;;13.86;78.03;100539.13;10527908;28;20043;-79
2022/11/15 12:43:14;;;;;;;2.05;1.10;;;;;;;14.02;77.03;100540.00;10509234;28;20052;-79
2022/11/15 12:48:15;;;;;;;2.22;1.10;;;;;;;14.00;76.13;100536.47;10527069;28;20424;-80
2022/11/15 12:53:27;;;;;;;3.10;1.48;;;;;;;13.79;75.41;100526.84;10509688;28;20451;-80
2022/11/15 12:58:47;;;;;;;2.70;1.20;;;;;;;13.65;75.28;100523.34;10526472;28;20041;-79
2022/11/15 13:04:15;;;;;;;2.08;1.08;;;;;;;13.55;75.29;100533.84;10526696;28;20039;-79
2022/11/15 13:09:28;;;;;;;2.45;1.40;;;;;;;13.37;75.05;100533.84;10517568;28;20040;-80
2022/11/15 13:14:45;;;;;;;1.20;0.90;;;;;;;13.27;75.20;100539.06;10492098;28;20110;-80
2022/11/15 13:19:54;;;;;;;2.00;1.13;;;;;;;13.15;74.98;100536.41;10467802;28;20499;-80
2022/11/15 13:24:56;;;;;;;1.45;0.90;;;;;;;13.12;74.93;100549.53;10507406;28;20036;-79
2022/11/15 13:29:58;;;;;;;2.67;0.90;;;;;;;13.30;75.01;100539.91;10519709;28;20048;-80
2022/11/15 13:35:00;;;;;;;2.10;0.88;;;;;;;13.52;74.59;100533.84;10481243;28;20045;-80
2022/11/15 13:40:22;;;;;;;1.98;0.95;;;;;;;13.63;73.96;100535.59;10493679;28;20046;-81
2022/11/15 13:45:26;;;;;;;2.72;1.38;;;;;;;13.65;73.28;100525.97;10507118;28;20036;-81
2022/11/15 13:50:33;;;;;;;1.50;0.82;;;;;;;13.57;72.70;100521.59;10505630;28;20044;-79
2022/11/15 13:55:35;;;;;;;2.53;0.98;;;;;;;13.49;72.47;100528.59;10491685;28;20066;-80
2022/11/15 14:00:43;;;;;;;0.98;0.80;;;;;;;13.31;72.50;100521.50;10494505;28;20045;-81
2022/11/15 14:06:12;;;;;;;0.82;0.63;;;;;;;13.15;72.52;100511.84;10498824;28;20707;-79
2022/11/15 14:11:20;;;;;;;0.80;0.57;;;;;;;12.96;72.54;100501.28;10493258;28;20536;-80
2022/11/15 14:16:36;;;;;;;2.58;1.10;;;;;;;12.81;72.79;100502.13;10499673;28;20611;-80
2022/11/15 14:22:13;;;;;;;0.95;0.75;;;;;;;12.70;73.07;100498.56;10507329;28;20054;-77
2022/11/15 14:27:28;;;;;;;1.17;0.70;;;;;;;12.70;73.07;100498.56;10498995;28;20048;-79
2022/11/15 14:32:41;;;;;;;;;;;;;;;12.39;73.70;100493.19;10492499;28;20567;-80
2022/11/15 14:37:42;;;;;;;0.88;0.75;;;;;;;12.25;73.96;100500.09;10492215;28;20390;-79
2022/11/15 14:42:45;;;;;;;1.17;0.65;;;;;;;12.14;74.12;100493.03;10526394;28;20102;-79
2022/11/15 14:47:48;;;;;;;0.75;0.45;;;;;;;12.01;74.34;100488.63;10531844;28;20626;-79
2022/11/15 14:52:49;;;;;;;1.27;0.50;;;;;;;11.88;74.67;100478.88;10531622;28;20271;-79
2022/11/15 14:57:52;;;;;;;1.95;0.80;;;;;;;-147.53;nan;57128.34;10531576;28;20040;-79
2022/11/15 15:02:54;;;;;;;1.45;0.75;;;;;;;11.59;74.90;100459.44;10522407;28;20040;-79
2022/11/15 15:07:55;;;;;;;1.55;0.70;;;;;;;11.48;75.19;100454.09;10527365;28;20071;-79
2022/11/15 15:12:57;;;;;;;0.73;0.50;;;;;;;11.48;75.19;100454.09;10490188;28;20037;-80
2022/11/15 15:17:59;;;;;;;0.95;0.60;;;;;;;11.19;75.76;100439.88;10498205;28;20090;-79
2022/11/15 15:23:00;;;;;;;1.63;0.70;;;;;;;11.07;76.19;100430.16;10501263;28;20044;-80
2022/11/15 15:28:02;;;;;;;1.05;0.50;;;;;;;10.93;76.40;100424.78;10495935;28;20032;-79
2022/11/15 15:33:03;;;;;;;1.35;0.50;;;;;;;10.78;76.89;100426.38;10497340;28;20045;-79
2022/11/15 15:38:05;;;;;;;2.05;0.85;;;;;;;10.77;76.83;100422.00;10467482;28;20087;-79
2022/11/15 15:43:08;;;;;;;0.73;0.60;;;;;;;10.66;76.69;100417.50;10480932;28;20666;-80
2022/11/15 15:48:17;;;;;;;3.00;1.25;;;;;;;10.47;76.73;100409.44;10514191;28;20094;-79
2022/11/15 15:53:18;;;;;;;;;;;;;;;10.22;76.90;100410.84;10510580;28;20055;-79
2022/11/15 15:58:19;;;;;;;3.33;1.17;;;;;;;9.98;77.39;100406.19;10516908;28;19932;-79
2022/11/15 16:03:22;;;;;;;1.50;0.73;;;;;;;9.81;77.93;100408.56;10528625;28;20163;-81
2022/11/15 16:08:26;;;;;;;1.45;0.70;;;;;;;9.58;78.05;100409.13;10522459;28;20066;-80
2022/11/15 16:13:27;;;;;;;1.65;0.80;;;;;;;9.40;78.55;100406.22;10513170;28;20035;-79
2022/11/15 16:18:29;;;;;;;2.17;0.95;;;;;;;9.23;78.99;100398.97;10543921;28;20039;-79
2022/11/15 16:23:31;;;;;;;1.50;0.55;;;;;;;9.10;79.40;100391.81;10568220;28;20043;-81
2022/11/15 16:28:33;;;;;;;1.88;0.88;;;;;;;8.90;79.82;100387.09;10553270;28;20044;-83
2022/11/15 16:33:35;;;;;;;1.38;0.70;;;;;;;8.78;80.18;100387.78;10521964;28;20071;-82
2022/11/15 16:38:38;;;;;;;1.80;0.88;;;;;;;8.78;80.70;100379.06;10563162;28;20032;-82
2022/11/15 16:43:40;;;;;;;1.88;1.08;;;;;;;8.81;81.09;100369.56;10570684;28;20070;-80
2022/11/15 16:48:41;;;;;;;3.95;1.55;;;;;;;8.77;81.30;100370.34;10558323;28;20036;-80
2022/11/15 16:53:43;;;;;;;2.25;1.33;;;;;;;8.79;81.55;100373.00;10559332;28;20040;-80
2022/11/15 16:58:45;;;;;;;1.58;1.00;;;;;;;8.78;81.71;100356.47;10558608;28;20129;-81
2022/11/15 17:03:46;;;;;;;1.38;0.93;;;;;;;8.83;82.05;100356.53;10558655;28;20064;-79
2022/11/15 17:08:48;;;;;;;5.60;1.50;;;;;;;8.98;82.36;100351.56;10549132;28;20036;-81
2022/11/15 17:13:49;;;;;;;2.67;1.25;;;;;;;9.12;82.88;100343.09;10548350;28;20564;-80
2022/11/15 17:18:51;;;;;;;2.33;1.02;;;;;;;9.20;82.79;100344.06;10530123;28;20066;-76
2022/11/15 17:23:53;;;;;;;0.77;0.77;;;;;;;9.30;83.10;100338.13;10505062;28;20563;-80
2022/11/15 17:28:55;;;;;;;2.75;1.15;;;;;;;9.37;83.45;100339.13;10526628;28;20787;-80
2022/11/15 17:33:57;;;;;;;1.65;0.90;;;;;;;9.60;83.73;100335.94;10522792;28;20036;-79
2022/11/15 17:38:58;;;;;;;1.02;0.90;;;;;;;9.85;83.83;100331.94;10505914;28;20036;-79
2022/11/15 17:44:02;;;;;;;2.58;0.80;;;;;;;9.96;83.88;100334.69;10500427;28;20044;-80
2022/11/15 17:49:03;;;;;;;3.42;1.55;;;;;;;9.97;83.94;100332.09;10504423;28;20032;-79
2022/11/15 17:54:05;;;;;;;2.38;1.42;;;;;;;10.02;84.09;100330.38;10534986;28;20180;-79
2022/11/15 17:59:07;;;;;;;1.42;0.70;;;;;;;10.09;84.11;100331.34;10539403;28;20044;-79
2022/11/15 18:04:16;;;;;;;2.35;1.15;;;;;;;10.11;84.34;100324.38;10543362;28;20036;-79
2022/11/15 18:09:18;;;;;;;1.85;0.85;;;;;;;10.12;84.42;100325.25;10542778;28;20036;-79
2022/11/15 18:14:19;;;;;;;1.90;1.35;;;;;;;10.20;84.38;100313.16;10537797;28;20790;-83
2022/11/15 18:19:21;;;;;;;1.30;0.77;;;;;;;10.23;84.51;100318.41;10527122;28;20055;-79
2022/11/15 18:24:32;;;;;;;2.08;1.00;;;;;;;10.20;84.58;100308.78;10536246;28;20036;-79
2022/11/15 18:29:36;;;;;;;0.98;0.77;;;;;;;10.21;84.83;100312.31;10543862;28;20097;-80
2022/11/15 18:34:38;;;;;;;1.55;1.08;;;;;;;10.18;84.82;100293.97;10531985;28;20398;-80
2022/11/15 18:39:39;;;;;;;1.90;1.15;;;;;;;10.30;85.01;100299.31;10519509;28;20048;-78
2022/11/15 18:44:41;;;;;;;1.20;0.77;;;;;;;10.24;85.12;100296.63;10528405;28;20093;-80
2022/11/15 18:49:42;;;;;;;1.83;1.13;;;;;;;10.30;85.15;100286.22;10542898;28;20044;-80
2022/11/15 18:54:44;;;;;;;2.47;0.85;;;;;;;10.37;85.36;100275.00;10541862;28;20052;-79
2022/11/15 18:59:45;;;;;;;2.90;1.35;;;;;;;10.48;85.15;100263.72;10535707;28;20098;-79
2022/11/15 19:04:47;;;;;;;1.33;0.77;;;;;;;10.49;85.25;100274.22;10482142;28;20072;-79
2022/11/15 19:09:48;;;;;;;1.42;0.75;;;;;;;10.55;84.95;100274.28;10505563;28;20032;-79
2022/11/15 19:14:50;;;;;;;0.77;0.60;;;;;;;10.63;84.95;100270.84;10494614;28;20103;-78
2022/11/15 19:19:52;;;;;;;1.25;0.95;;;;;;;10.70;84.96;100265.66;10492991;28;20040;-79
2022/11/15 19:24:53;;;;;;;1.20;0.80;;;;;;;10.80;84.76;100253.53;10530081;28;20040;-80
2022/11/15 19:29:55;;;;;;;1.52;0.75;;;;;;;10.92;84.39;100258.00;10533543;28;20681;-80
2022/11/15 19:34:56;;;;;;;1.85;1.13;;;;;;;10.95;84.23;100251.03;10526312;28;20040;-79
2022/11/15 19:39:58;;;;;;;1.13;0.82;;;;;;;11.03;84.01;100251.06;10515506;28;20059;-80
2022/11/15 19:44:59;;;;;;;1.77;1.00;;;;;;;11.11;83.78;100252.00;10487326;28;20040;-80
2022/11/15 19:50:01;;;;;;;2.92;1.50;;;;;;;11.12;83.56;100245.00;10504098;28;20460;-79
2022/11/15 19:55:02;;;;;;;2.70;1.27;;;;;;;11.09;83.27;100248.50;10488475;28;20045;-81
2022/11/15 20:00:04;;;;;;;1.90;0.80;;;;;;;11.04;83.34;100244.97;10504880;28;20664;-79
2022/11/15 20:05:08;;;;;;;2.30;1.45;;;;;;;11.05;83.12;100235.34;10498125;28;20514;-79
2022/11/15 20:10:15;;;;;;;0.93;0.80;;;;;;;11.06;83.01;100239.75;10507154;28;20492;-79
2022/11/15 20:15:21;;;;;;;2.53;1.40;;;;;;;11.01;82.91;100225.75;10535067;28;20101;-80
2022/11/15 20:20:23;;;;;;;2.20;0.80;;;;;;;10.98;82.86;100223.97;10543025;28;20062;-81
2022/11/15 20:25:24;;;;;;;2.22;1.10;;;;;;;10.95;83.00;100223.97;10526821;28;20066;-80
2022/11/15 20:30:26;;;;;;;2.17;0.85;;;;;;;10.98;82.90;100216.13;10542647;28;20109;-79
2022/11/15 20:35:27;;;;;;;2.00;1.02;;;;;;;11.00;82.73;100224.00;10512179;28;20763;-79
2022/11/15 20:40:28;;;;;;;2.65;1.58;;;;;;;10.97;82.83;100219.59;10533489;28;20036;-79
2022/11/15 20:45:30;;;;;;;1.05;0.82;;;;;;;10.99;82.55;100206.50;10527447;28;20049;-79
2022/11/15 20:50:32;;;;;;;1.55;1.05;;;;;;;10.99;82.41;100207.41;10531268;28;20493;-79
2022/11/15 20:55:51;;;;;;;7.45;1.13;;;;;;;11.03;82.42;100195.19;10536812;28;20569;-81
2022/11/15 21:00:54;;;;;;;1.67;0.90;;;;;;;11.04;82.05;100197.81;10517453;28;20044;-79
2022/11/15 21:05:56;;;;;;;1.77;1.13;;;;;;;11.00;81.91;100193.41;10540515;28;20749;-79
2022/11/15 21:16:18;;;;;;;1.25;0.80;;;;;;;10.97;81.85;100175.06;10512948;28;20047;-81
2022/11/15 21:21:20;;;;;;;2.00;0.77;;;;;;;10.96;81.86;100182.06;10499675;28;20054;-80
2022/11/15 21:26:22;;;;;;;0.95;0.88;;;;;;;11.03;81.78;100167.22;10499731;28;20040;-79
2022/11/15 21:31:23;;;;;;;1.52;0.95;;;;;;;11.02;81.47;100170.75;10497540;28;20098;-81
2022/11/15 21:36:25;;;;;;;2.55;0.80;;;;;;;10.96;81.47;100165.47;10502210;28;20044;-79
2022/11/15 21:41:26;;;;;;;1.48;0.90;;;;;;;10.95;81.44;100163.72;10490983;28;20082;-81
2022/11/15 21:46:29;;;;;;;1.90;1.00;;;;;;;10.95;81.52;100163.72;10489189;28;20040;-79
2022/11/15 21:51:31;;;;;;;1.20;0.80;;;;;;;10.92;81.45;100155.84;10503330;28;20562;-80
2022/11/15 21:56:32;;;;;;;2.92;1.38;;;;;;;10.94;81.43;100152.38;10472925;28;20648;-79
2022/11/15 22:06:54;;;;;;;1.45;0.90;;;;;;;10.91;81.38;100147.13;10487351;28;20126;-80
2022/11/15 22:11:55;;;;;;;1.17;0.68;;;;;;;10.91;81.38;100135.75;10495593;28;20052;-79
2022/11/15 22:16:57;;;;;;;1.88;1.02;;;;;;;10.87;81.47;100136.59;10527958;28;20048;-80
2022/11/15 22:21:58;;;;;;;1.42;0.95;;;;;;;10.90;81.46;100126.13;10510669;28;20830;-80
2022/11/15 22:27:00;;;;;;;0.85;0.68;;;;;;;10.96;81.53;100124.44;10528023;28;20581;-79
2022/11/15 22:32:02;;;;;;;0.63;0.47;;;;;;;10.94;81.59;100114.78;10521348;28;20066;-79
2022/11/15 22:37:03;;;;;;;1.58;0.90;;;;;;;10.93;81.60;100113.06;10527665;28;20044;-80
2022/11/15 22:42:21;;;;;;;2.65;0.73;;;;;;;10.91;81.49;100117.41;10507392;28;20033;-81
2022/11/15 22:47:24;;;;;;;2.67;0.90;;;;;;;10.86;81.71;100100.81;10516979;28;20575;-80
2022/11/15 22:52:26;;;;;;;0.85;0.68;;;;;;;10.83;81.82;100106.91;10534071;28;20048;-80
2022/11/15 22:57:27;;;;;;;2.45;1.13;;;;;;;10.89;81.89;100108.69;10533248;28;20036;-80
2022/11/15 23:02:29;;;;;;;1.70;0.93;;;;;;;10.83;81.90;100096.41;10532464;28;20040;-80
2022/11/15 23:07:32;;;;;;;2.25;0.93;;;;;;;10.83;81.82;100095.56;10531961;28;20647;-79
2022/11/15 23:17:55;;;;;;;1.00;0.88;;;;;;;10.84;82.14;100095.56;10509276;28;20059;-78
2022/11/15 23:22:58;;;;;;;2.75;1.30;;;;;;;10.78;82.10;100093.78;10508317;28;20055;-80
2022/11/15 23:28:03;;;;;;;3.15;1.08;;;;;;;10.76;82.14;100092.91;10512746;28;20050;-80
2022/11/15 23:38:25;;;;;;;2.55;1.25;;;;;;;10.75;82.51;100077.19;10511147;28;20095;-80
2022/11/15 23:43:26;;;;;;;2.45;1.23;;;;;;;10.71;82.23;100086.75;10509329;22;20086;-87
2022/11/15 23:48:28;;;;;;;2.28;0.93;;;;;;;10.76;82.18;100078.91;10500599;28;20040;-86
2022/11/15 23:53:30;;;;;;;0.65;0.63;;;;;;;10.77;82.25;100078.94;10488181;28;20040;-87
2022/11/15 23:58:32;;;;;;;2.10;1.20;;;;;;;10.73;81.97;100066.72;10487860;28;20118;-87
